createdAt,value
2018-11-29T00:00:10.122Z,9.50
2018-11-29T00:02:38.270Z,9.60
2018-11-29T00:05:07.191Z,9.60
2018-11-29T00:07:35.338Z,9.70
2018-11-29T00:10:03.523Z,9.70
2018-11-29T00:12:31.688Z,9.80
2018-11-29T00:14:59.866Z,9.80
2018-11-29T00:17:28.031Z,9.80
2018-11-29T00:19:56.209Z,9.80
2018-11-29T00:22:24.363Z,9.80
2018-11-29T00:24:52.535Z,9.80
2018-11-29T00:27:20.694Z,9.70
2018-11-29T00:29:48.866Z,9.80
2018-11-29T00:32:17.020Z,9.70
2018-11-29T00:34:45.210Z,9.70
2018-11-29T00:37:13.364Z,9.70
2018-11-29T00:39:41.586Z,9.70
2018-11-29T00:42:09.747Z,9.70
2018-11-29T00:44:37.939Z,9.70
2018-11-29T00:47:06.143Z,9.70
2018-11-29T00:49:34.310Z,9.70
2018-11-29T00:52:02.479Z,9.70
2018-11-29T00:54:30.656Z,9.70
2018-11-29T00:56:58.819Z,9.70
2018-11-29T00:59:26.994Z,9.70
2018-11-29T01:02:00.366Z,9.70
2018-11-29T01:04:28.854Z,9.70
2018-11-29T01:06:57.204Z,9.70
2018-11-29T01:09:25.403Z,9.70
2018-11-29T01:11:53.550Z,9.70
2018-11-29T01:14:21.710Z,9.70
2018-11-29T01:16:49.865Z,9.70
2018-11-29T01:19:18.038Z,9.80
2018-11-29T01:21:46.198Z,9.80
2018-11-29T01:24:14.379Z,9.70
2018-11-29T01:26:42.542Z,9.80
2018-11-29T01:29:10.723Z,9.80
2018-11-29T01:31:39.182Z,9.80
2018-11-29T01:34:07.397Z,9.80
2018-11-29T01:36:35.535Z,9.80
2018-11-29T01:39:04.575Z,9.80
2018-11-29T01:41:32.739Z,9.80
2018-11-29T01:44:00.918Z,9.80
2018-11-29T01:46:29.084Z,9.80
2018-11-29T01:48:57.237Z,9.80
2018-11-29T01:51:25.431Z,9.80
2018-11-29T01:53:53.601Z,9.70
2018-11-29T01:56:21.778Z,9.70
2018-11-29T01:58:49.935Z,9.70
2018-11-29T02:01:18.122Z,9.70
2018-11-29T02:03:46.268Z,9.70
2018-11-29T02:06:14.431Z,9.80
2018-11-29T02:08:42.583Z,9.80
2018-11-29T02:11:10.767Z,9.80
2018-11-29T02:13:38.927Z,9.90
2018-11-29T02:16:07.127Z,9.90
2018-11-29T02:18:35.295Z,9.90
2018-11-29T02:21:03.509Z,9.90
2018-11-29T02:23:31.671Z,9.90
2018-11-29T02:25:59.866Z,10.00
2018-11-29T02:28:28.027Z,9.90
2018-11-29T02:30:56.199Z,10.00
2018-11-29T02:33:24.416Z,10.00
2018-11-29T02:35:52.632Z,10.00
2018-11-29T02:38:20.806Z,9.90
2018-11-29T02:40:48.995Z,9.90
2018-11-29T02:43:17.171Z,10.00
2018-11-29T02:45:45.635Z,10.00
2018-11-29T02:48:13.859Z,9.90
2018-11-29T02:50:42.019Z,9.90
2018-11-29T02:53:10.167Z,9.90
2018-11-29T02:55:38.343Z,9.80
2018-11-29T02:58:06.512Z,9.80
2018-11-29T03:00:34.698Z,9.80
2018-11-29T03:03:02.864Z,9.80
2018-11-29T03:05:31.064Z,9.80
2018-11-29T03:07:59.242Z,9.80
2018-11-29T03:10:27.785Z,9.80
2018-11-29T03:12:55.975Z,9.80
2018-11-29T03:15:24.155Z,9.70
2018-11-29T03:17:52.305Z,9.70
2018-11-29T03:20:20.783Z,9.70
2018-11-29T03:22:48.935Z,9.70
2018-11-29T03:25:17.130Z,9.70
2018-11-29T03:27:45.343Z,9.60
2018-11-29T03:30:15.561Z,9.60
2018-11-29T03:32:43.746Z,9.60
2018-11-29T03:35:12.731Z,9.60
2018-11-29T03:37:40.880Z,9.50
2018-11-29T03:40:12.151Z,9.50
2018-11-29T03:42:40.335Z,9.50
2018-11-29T03:45:10.027Z,9.40
2018-11-29T03:47:38.239Z,9.50
2018-11-29T03:50:09.135Z,9.40
2018-11-29T03:52:37.316Z,9.40
2018-11-29T03:55:06.380Z,9.40
2018-11-29T03:57:34.547Z,9.40
2018-11-29T04:00:02.728Z,9.40
2018-11-29T04:02:30.946Z,9.50
2018-11-29T04:04:59.142Z,9.50
2018-11-29T04:07:27.300Z,9.50
2018-11-29T04:09:55.466Z,9.60
2018-11-29T04:12:23.618Z,9.60
2018-11-29T04:14:51.774Z,9.70
2018-11-29T04:17:19.925Z,9.70
2018-11-29T04:19:48.095Z,9.70
2018-11-29T04:22:16.246Z,9.70
2018-11-29T04:24:44.418Z,9.60
2018-11-29T04:27:12.594Z,9.60
2018-11-29T04:29:40.758Z,9.60
2018-11-29T04:33:38.130Z,9.60
2018-11-29T04:36:06.467Z,9.60
2018-11-29T04:38:34.620Z,9.50
2018-11-29T04:41:02.791Z,9.60
2018-11-29T04:43:30.941Z,9.60
2018-11-29T04:46:42.623Z,9.60
2018-11-29T04:49:11.073Z,9.60
2018-11-29T04:51:39.528Z,9.60
2018-11-29T04:54:08.460Z,9.60
2018-11-29T04:56:58.409Z,9.50
2018-11-29T04:59:26.603Z,9.50
2018-11-29T05:01:54.790Z,9.60
2018-11-29T05:04:22.968Z,9.50
2018-11-29T05:06:51.148Z,9.50
2018-11-29T05:09:19.307Z,9.50
2018-11-29T05:11:47.495Z,9.50
2018-11-29T05:14:15.664Z,9.50
2018-11-29T05:16:43.885Z,9.50
2018-11-29T05:19:12.071Z,9.50
2018-11-29T05:21:40.242Z,9.50
2018-11-29T05:24:08.407Z,9.60
2018-11-29T05:26:36.827Z,9.60
2018-11-29T05:29:05.123Z,9.60
2018-11-29T05:31:33.323Z,9.60
2018-11-29T05:34:01.483Z,9.60
2018-11-29T05:36:29.672Z,9.50
2018-11-29T05:38:57.839Z,9.60
2018-11-29T05:41:26.047Z,9.60
2018-11-29T05:43:54.226Z,9.50
2018-11-29T05:46:22.503Z,9.60
2018-11-29T05:48:50.960Z,9.60
2018-11-29T05:51:19.242Z,9.60
2018-11-29T05:53:47.494Z,9.70
2018-11-29T05:56:15.688Z,9.70
2018-11-29T05:58:43.879Z,9.70
2018-11-29T06:01:16.299Z,9.70
2018-11-29T06:03:44.468Z,9.70
2018-11-29T06:06:12.659Z,9.70
2018-11-29T06:08:40.834Z,9.70
2018-11-29T06:11:09.050Z,9.70
2018-11-29T06:13:37.501Z,9.70
2018-11-29T06:16:05.987Z,9.70
2018-11-29T06:19:37.053Z,9.70
2018-11-29T06:22:05.529Z,9.70
2018-11-29T06:24:33.695Z,9.70
2018-11-29T06:27:01.921Z,9.70
2018-11-29T06:29:30.095Z,9.80
2018-11-29T06:31:58.302Z,9.70
2018-11-29T06:34:26.555Z,9.70
2018-11-29T06:36:54.755Z,9.70
2018-11-29T06:39:22.999Z,9.70
2018-11-29T06:41:51.198Z,9.70
2018-11-29T06:44:19.387Z,9.60
2018-11-29T06:46:48.508Z,9.70
2018-11-29T06:49:16.694Z,9.70
2018-11-29T06:51:44.879Z,9.60
2018-11-29T06:54:13.116Z,9.60
2018-11-29T06:56:41.303Z,9.60
2018-11-29T06:59:09.499Z,9.60
2018-11-29T07:01:37.687Z,9.50
2018-11-29T07:04:05.925Z,9.60
2018-11-29T07:06:34.107Z,9.70
2018-11-29T07:09:02.354Z,9.80
2018-11-29T07:11:30.580Z,9.90
2018-11-29T07:13:58.751Z,10.00
2018-11-29T07:16:26.958Z,10.00
2018-11-29T07:18:55.138Z,10.10
2018-11-29T07:21:34.739Z,10.20
2018-11-29T07:24:02.913Z,10.10
2018-11-29T07:26:31.117Z,10.20
2018-11-29T07:28:59.319Z,10.10
2018-11-29T07:31:27.547Z,10.10
2018-11-29T07:33:55.803Z,10.10
2018-11-29T07:36:24.015Z,10.10
2018-11-29T07:38:52.195Z,10.00
2018-11-29T07:41:20.395Z,10.00
2018-11-29T07:43:49.632Z,10.00
2018-11-29T07:46:17.811Z,10.00
2018-11-29T07:48:46.026Z,10.00
2018-11-29T07:51:14.203Z,10.00
2018-11-29T07:53:42.391Z,9.90
2018-11-29T07:56:10.585Z,9.90
2018-11-29T07:58:38.787Z,9.90
2018-11-29T08:01:07.154Z,9.90
2018-11-29T08:03:35.366Z,9.90
2018-11-29T08:06:03.539Z,9.90
2018-11-29T08:08:31.783Z,10.00
2018-11-29T08:10:59.967Z,10.10
2018-11-29T08:13:28.170Z,10.10
2018-11-29T08:15:56.387Z,10.20
2018-11-29T08:18:24.582Z,10.30
2018-11-29T08:20:52.766Z,10.30
2018-11-29T08:23:21.212Z,10.40
2018-11-29T08:25:49.388Z,10.40
2018-11-29T08:28:17.591Z,10.30
2018-11-29T08:30:45.818Z,10.30
2018-11-29T08:33:14.046Z,10.30
2018-11-29T08:35:42.223Z,10.30
2018-11-29T08:38:10.431Z,10.40
2018-11-29T08:40:38.620Z,10.50
2018-11-29T08:43:07.240Z,10.50
2018-11-29T08:45:35.422Z,10.60
2018-11-29T08:48:03.802Z,10.60
2018-11-29T08:50:32.040Z,10.70
2018-11-29T08:53:00.253Z,10.70
2018-11-29T08:55:28.466Z,10.70
2018-11-29T08:57:56.661Z,10.70
2018-11-29T09:00:24.847Z,10.70
2018-11-29T09:02:53.045Z,10.70
2018-11-29T09:05:21.340Z,10.60
2018-11-29T09:07:49.774Z,10.60
2018-11-29T09:10:22.342Z,10.50
2018-11-29T09:12:50.587Z,10.40
2018-11-29T09:15:18.791Z,10.40
2018-11-29T09:17:47.313Z,10.30
2018-11-29T09:20:19.292Z,10.30
2018-11-29T09:22:47.541Z,10.20
2018-11-29T09:25:18.591Z,10.20
2018-11-29T09:27:46.792Z,10.20
2018-11-29T09:30:15.848Z,10.20
2018-11-29T09:32:44.683Z,10.20
2018-11-29T09:35:12.929Z,10.20
2018-11-29T09:37:41.146Z,10.20
2018-11-29T09:40:11.531Z,10.10
2018-11-29T09:42:39.964Z,10.10
2018-11-29T09:45:12.547Z,10.10
2018-11-29T09:47:40.758Z,10.10
2018-11-29T09:50:11.179Z,10.10
2018-11-29T09:52:39.811Z,10.10
2018-11-29T09:55:09.011Z,10.10
2018-11-29T09:57:37.247Z,10.10
2018-11-29T10:00:38.931Z,10.00
2018-11-29T10:03:14.269Z,10.10
2018-11-29T10:05:43.723Z,10.10
2018-11-29T10:08:14.488Z,10.20
2018-11-29T10:10:42.668Z,10.20
2018-11-29T10:13:10.903Z,10.30
2018-11-29T10:15:39.108Z,10.40
2018-11-29T10:18:07.905Z,10.40
2018-11-29T10:20:36.115Z,10.40
2018-11-29T10:23:04.350Z,10.50
2018-11-29T10:25:32.893Z,10.50
2018-11-29T10:28:06.121Z,10.50
2018-11-29T10:30:36.314Z,10.50
2018-11-29T10:33:05.628Z,10.50
2018-11-29T10:35:33.812Z,10.50
2018-11-29T10:38:02.011Z,10.60
2018-11-29T10:40:30.206Z,10.60
2018-11-29T10:42:58.503Z,10.70
2018-11-29T10:45:26.700Z,10.80
2018-11-29T10:47:55.591Z,10.80
2018-11-29T10:50:23.761Z,10.90
2018-11-29T10:52:51.936Z,11.00
2018-11-29T10:55:20.345Z,11.00
2018-11-29T10:57:48.528Z,11.00
2018-11-29T11:00:23.001Z,10.90
2018-11-29T11:02:56.779Z,10.90
2018-11-29T11:05:24.987Z,10.90
2018-11-29T11:07:53.166Z,10.80
2018-11-29T11:10:21.388Z,10.70
2018-11-29T11:12:49.579Z,10.60
2018-11-29T11:15:17.788Z,10.60
2018-11-29T11:17:45.956Z,10.70
2018-11-29T11:20:14.156Z,10.70
2018-11-29T11:22:42.336Z,10.70
2018-11-29T11:25:11.331Z,10.80
2018-11-29T11:27:39.554Z,10.90
2018-11-29T11:30:11.048Z,10.90
2018-11-29T11:32:39.264Z,11.00
2018-11-29T11:35:07.710Z,11.10
2018-11-29T11:37:35.915Z,11.20
2018-11-29T11:40:04.433Z,11.20
2018-11-29T11:42:32.627Z,11.20
2018-11-29T11:45:00.815Z,11.20
2018-11-29T11:47:29.023Z,11.10
2018-11-29T11:49:57.244Z,11.10
2018-11-29T11:52:25.411Z,11.10
2018-11-29T11:54:53.624Z,11.10
2018-11-29T11:57:21.796Z,11.10
2018-11-29T11:59:50.019Z,11.10
2018-11-29T12:02:18.200Z,11.10
2018-11-29T12:04:48.680Z,11.20
2018-11-29T12:07:14.847Z,11.20
2018-11-29T12:09:43.055Z,11.20
2018-11-29T12:12:11.262Z,11.20
2018-11-29T12:14:39.479Z,11.30
2018-11-29T12:17:07.658Z,11.40
2018-11-29T12:19:35.863Z,11.40
2018-11-29T12:22:04.039Z,11.40
2018-11-29T12:24:32.459Z,11.50
2018-11-29T12:27:00.630Z,11.50
2018-11-29T12:29:28.842Z,11.50
2018-11-29T12:31:57.140Z,11.50
2018-11-29T12:34:25.339Z,11.60
2018-11-29T12:36:53.523Z,11.60
2018-11-29T12:39:21.733Z,11.70
2018-11-29T12:41:49.919Z,11.70
2018-11-29T12:44:18.123Z,11.70
2018-11-29T12:46:46.303Z,11.70
2018-11-29T12:49:14.511Z,11.70
2018-11-29T12:51:42.700Z,11.70
2018-11-29T12:54:10.902Z,11.70
2018-11-29T12:56:39.139Z,11.70
2018-11-29T12:59:07.344Z,11.70
2018-11-29T13:01:35.631Z,11.60
2018-11-29T13:04:03.772Z,11.60
2018-11-29T13:06:31.991Z,11.50
2018-11-29T13:09:02.361Z,11.50
2018-11-29T13:11:30.891Z,11.50
2018-11-29T13:13:59.351Z,11.50
2018-11-29T13:16:27.511Z,11.50
2018-11-29T13:18:55.687Z,11.40
2018-11-29T13:21:23.895Z,11.40
2018-11-29T13:23:52.084Z,11.40
2018-11-29T13:26:20.283Z,11.40
2018-11-29T13:28:48.479Z,11.40
2018-11-29T13:31:16.714Z,11.40
2018-11-29T13:33:44.902Z,11.40
2018-11-29T13:36:13.100Z,11.30
2018-11-29T13:38:41.279Z,11.30
2018-11-29T13:41:09.468Z,11.30
2018-11-29T13:43:37.656Z,11.30
2018-11-29T13:46:06.320Z,11.30
2018-11-29T13:48:34.505Z,11.30
2018-11-29T13:51:02.707Z,11.30
2018-11-29T13:53:30.905Z,11.30
2018-11-29T13:56:03.832Z,11.30
2018-11-29T13:58:32.501Z,11.30
2018-11-29T14:01:00.795Z,11.30
2018-11-29T14:03:28.945Z,11.30
2018-11-29T14:05:57.147Z,11.20
2018-11-29T14:08:25.331Z,11.20
2018-11-29T14:10:53.559Z,11.20
2018-11-29T14:13:21.740Z,11.20
2018-11-29T14:15:49.937Z,11.20
2018-11-29T14:18:18.130Z,11.10
2018-11-29T14:20:46.324Z,11.10
2018-11-29T14:23:14.496Z,11.00
2018-11-29T14:25:42.684Z,11.00
2018-11-29T14:28:10.870Z,10.90
2018-11-29T14:30:39.076Z,10.90
2018-11-29T14:33:07.748Z,10.80
2018-11-29T14:35:35.952Z,10.80
2018-11-29T14:38:04.163Z,10.70
2018-11-29T14:40:34.616Z,10.70
2018-11-29T14:43:02.820Z,10.70
2018-11-29T14:45:31.003Z,10.60
2018-11-29T14:47:59.279Z,10.70
2018-11-29T14:50:47.146Z,10.70
2018-11-29T14:53:15.346Z,10.60
2018-11-29T14:55:43.518Z,10.60
2018-11-29T14:58:12.791Z,10.60
2018-11-29T15:00:40.983Z,10.60
2018-11-29T15:03:19.363Z,10.60
2018-11-29T15:05:47.564Z,10.60
2018-11-29T15:08:15.758Z,10.60
2018-11-29T15:10:43.928Z,10.60
2018-11-29T15:13:12.570Z,10.60
2018-11-29T15:15:41.493Z,10.60
2018-11-29T15:18:10.359Z,10.60
2018-11-29T15:20:43.207Z,10.60
2018-11-29T15:23:12.413Z,10.60
2018-11-29T15:25:40.602Z,10.60
2018-11-29T15:28:08.833Z,10.50
2018-11-29T15:30:37.035Z,10.50
2018-11-29T15:33:05.486Z,10.50
2018-11-29T15:35:33.662Z,10.50
2018-11-29T15:38:01.997Z,10.50
2018-11-29T15:40:30.167Z,10.50
2018-11-29T15:42:58.599Z,10.50
2018-11-29T15:45:27.372Z,10.50
2018-11-29T15:47:55.579Z,10.40
2018-11-29T15:50:23.774Z,10.40
2018-11-29T15:52:51.964Z,10.40
2018-11-29T15:55:21.025Z,10.40
2018-11-29T15:57:50.025Z,10.40
2018-11-29T16:00:21.287Z,10.30
2018-11-29T16:02:49.975Z,10.30
2018-11-29T16:05:18.199Z,10.20
2018-11-29T16:07:46.465Z,10.20
2018-11-29T16:10:17.613Z,10.20
2018-11-29T16:12:45.997Z,10.20
2018-11-29T16:15:14.954Z,10.20
2018-11-29T16:17:43.492Z,10.20
2018-11-29T16:20:25.497Z,10.20
2018-11-29T16:22:53.724Z,10.20
2018-11-29T16:25:21.983Z,10.20
2018-11-29T16:27:50.240Z,10.20
2018-11-29T16:30:36.426Z,10.20
2018-11-29T16:33:10.082Z,10.20
2018-11-29T16:35:38.293Z,10.20
2018-11-29T16:38:07.079Z,10.20
2018-11-29T16:40:35.883Z,10.20
2018-11-29T16:43:04.235Z,10.10
2018-11-29T16:45:32.415Z,10.10
2018-11-29T16:48:00.680Z,10.10
2018-11-29T16:50:28.999Z,10.00
2018-11-29T16:52:57.326Z,10.00
2018-11-29T16:55:25.628Z,10.00
2018-11-29T16:57:56.559Z,10.00
2018-11-29T17:00:24.737Z,9.90
2018-11-29T17:02:53.891Z,9.90
2018-11-29T17:05:22.064Z,9.90
2018-11-29T17:07:50.517Z,9.90
2018-11-29T17:10:20.093Z,9.90
2018-11-29T17:12:54.515Z,9.90
2018-11-29T17:15:22.676Z,9.90
2018-11-29T17:17:50.895Z,9.90
2018-11-29T17:20:19.835Z,9.90
2018-11-29T17:22:48.919Z,9.90
2018-11-29T17:25:17.207Z,9.80
2018-11-29T17:27:45.385Z,9.80
2018-11-29T17:30:18.542Z,9.80
2018-11-29T17:32:47.782Z,9.80
2018-11-29T17:35:16.956Z,9.80
2018-11-29T17:37:46.214Z,9.90
2018-11-29T17:40:16.429Z,9.90
2018-11-29T17:42:44.666Z,9.90
2018-11-29T17:45:14.359Z,9.90
2018-11-29T17:47:43.270Z,9.90
2018-11-29T17:50:14.191Z,10.00
2018-11-29T17:52:42.483Z,10.00
2018-11-29T17:55:10.722Z,10.00
2018-11-29T17:57:38.914Z,10.00
2018-11-29T18:00:18.127Z,10.00
2018-11-29T18:02:46.307Z,10.00
2018-11-29T18:05:14.543Z,10.00
2018-11-29T18:07:42.753Z,10.00
2018-11-29T18:10:16.103Z,10.10
2018-11-29T18:12:44.660Z,10.10
2018-11-29T18:15:22.206Z,10.20
2018-11-29T18:17:50.405Z,10.20
2018-11-29T18:20:18.665Z,10.30
2018-11-29T18:22:46.871Z,10.30
2018-11-29T18:25:15.953Z,10.30
2018-11-29T18:27:51.538Z,10.30
2018-11-29T18:30:20.704Z,10.30
2018-11-29T18:32:48.937Z,10.30
2018-11-29T18:35:17.411Z,10.30
2018-11-29T18:37:45.646Z,10.30
2018-11-29T18:40:18.596Z,10.30
2018-11-29T18:42:53.709Z,10.30
2018-11-29T18:45:22.876Z,10.30
2018-11-29T18:47:52.470Z,10.20
2018-11-29T18:50:24.566Z,10.20
2018-11-29T18:52:52.968Z,10.20
2018-11-29T18:55:22.228Z,10.20
2018-11-29T18:57:50.679Z,10.20
2018-11-29T19:00:36.596Z,10.20
2018-11-29T19:03:05.045Z,10.30
2018-11-29T19:05:33.370Z,10.30
2018-11-29T19:08:01.593Z,10.30
2018-11-29T19:10:29.908Z,10.30
2018-11-29T19:13:02.432Z,10.40
2018-11-29T19:15:30.670Z,10.40
2018-11-29T19:17:58.862Z,10.50
2018-11-29T19:20:27.116Z,10.50
2018-11-29T19:22:55.498Z,10.50
2018-11-29T19:25:23.893Z,10.50
2018-11-29T19:27:52.091Z,10.50
2018-11-29T19:30:24.519Z,10.50
2018-11-29T19:33:27.378Z,10.50
2018-11-29T19:35:55.881Z,10.50
2018-11-29T19:38:24.110Z,10.50
2018-11-29T19:40:52.340Z,10.50
2018-11-29T19:43:20.811Z,10.50
2018-11-29T19:45:49.052Z,10.40
2018-11-29T19:48:17.253Z,10.40
2018-11-29T19:50:45.537Z,10.40
2018-11-29T19:53:15.799Z,10.40
2018-11-29T19:55:44.217Z,10.30
2018-11-29T19:58:12.778Z,10.30
2018-11-29T20:00:41.736Z,10.30
2018-11-29T20:03:09.996Z,10.30
2018-11-29T20:05:40.283Z,10.20
2018-11-29T20:08:08.539Z,10.20
2018-11-29T20:10:38.494Z,10.20
2018-11-29T20:13:10.326Z,10.20
2018-11-29T20:15:40.179Z,10.20
2018-11-29T20:18:10.523Z,10.20
2018-11-29T20:20:39.855Z,10.20
2018-11-29T20:23:09.179Z,10.20
2018-11-29T20:25:37.893Z,10.20
2018-11-29T20:28:06.897Z,10.20
2018-11-29T20:30:35.481Z,10.20
2018-11-29T20:33:07.345Z,10.20
2018-11-29T20:35:36.053Z,10.20
2018-11-29T20:38:04.979Z,10.80
2018-11-29T20:40:35.318Z,10.10
2018-11-29T20:43:05.640Z,10.10
2018-11-29T20:45:35.647Z,10.10
2018-11-29T20:48:09.425Z,10.10
2018-11-29T20:50:37.795Z,10.10
2018-11-29T20:53:07.100Z,10.10
2018-11-29T20:55:35.313Z,10.10
2018-11-29T20:58:03.552Z,10.10
2018-11-29T21:00:31.739Z,10.10
2018-11-29T21:02:59.989Z,10.10
2018-11-29T21:05:28.178Z,10.10
2018-11-29T21:07:57.866Z,10.20
2018-11-29T21:10:26.193Z,10.20
2018-11-29T21:12:54.717Z,10.20
2018-11-29T21:15:22.935Z,10.20
2018-11-29T21:17:51.461Z,10.20
2018-11-29T21:20:20.576Z,10.30
2018-11-29T21:22:49.867Z,10.30
2018-11-29T21:25:19.234Z,10.40
2018-11-29T21:27:47.441Z,10.40
2018-11-29T21:30:16.158Z,10.50
2018-11-29T21:32:44.667Z,10.50
2018-11-29T21:35:15.871Z,10.50
2018-11-29T21:40:20.948Z,10.60
2018-11-29T21:42:49.143Z,10.60
2018-11-29T21:45:17.350Z,10.70
2018-11-29T21:47:45.599Z,10.70
2018-11-29T21:50:13.852Z,10.70
2018-11-29T21:52:42.031Z,10.70
2018-11-29T21:55:10.501Z,10.70
2018-11-29T21:57:38.726Z,10.70
2018-11-29T22:00:11.604Z,10.70
2018-11-29T22:02:41.787Z,10.70
2018-11-29T22:05:09.421Z,10.70
2018-11-29T22:07:37.615Z,10.70
2018-11-29T22:10:05.872Z,10.70
2018-11-29T22:12:34.064Z,10.70
2018-11-29T22:15:02.279Z,10.70
2018-11-29T22:17:30.503Z,10.70
2018-11-29T22:19:58.706Z,10.70
2018-11-29T22:22:28.511Z,10.60
2018-11-29T22:24:55.239Z,10.60
2018-11-29T22:27:23.413Z,10.60
2018-11-29T22:29:51.604Z,10.60
2018-11-29T22:32:19.808Z,10.60
2018-11-29T22:34:48.015Z,10.50
2018-11-29T22:37:16.194Z,10.50
2018-11-29T22:39:44.410Z,10.50
2018-11-29T22:42:12.595Z,10.50
2018-11-29T22:44:40.826Z,10.50
2018-11-29T22:47:09.116Z,10.50
2018-11-29T22:49:37.334Z,10.40
2018-11-29T22:52:05.855Z,10.50
2018-11-29T22:54:34.066Z,10.50
2018-11-29T22:57:02.254Z,10.50
2018-11-29T22:59:30.528Z,10.50
2018-11-29T23:01:58.759Z,10.50
2018-11-29T23:04:26.976Z,10.50
2018-11-29T23:06:55.207Z,10.50
2018-11-29T23:09:23.418Z,10.50
2018-11-29T23:11:51.639Z,10.50
2018-11-29T23:14:19.846Z,10.50
2018-11-29T23:16:48.035Z,10.50
2018-11-29T23:19:16.244Z,10.40
2018-11-29T23:21:44.426Z,10.40
2018-11-29T23:24:12.745Z,10.40
2018-11-29T23:26:40.935Z,10.40
2018-11-29T23:29:09.128Z,10.40
2018-11-29T23:31:37.335Z,10.40
2018-11-29T23:34:06.171Z,10.50
2018-11-29T23:36:34.385Z,10.40
2018-11-29T23:39:02.683Z,10.40
2018-11-29T23:41:30.880Z,10.40
2018-11-29T23:43:59.070Z,10.50
2018-11-29T23:46:27.295Z,10.40
2018-11-29T23:48:55.479Z,10.50
2018-11-29T23:51:23.674Z,10.50
2018-11-29T23:53:51.899Z,10.50
2018-11-29T23:56:20.103Z,10.50
2018-11-29T23:58:48.279Z,10.50
